createdAt,value
2022-10-15T00:00:55.926Z,15.62
2022-10-15T00:03:24.807Z,15.53
2022-10-15T00:05:52.354Z,15.46
2022-10-15T00:08:19.962Z,15.78
2022-10-15T00:10:47.493Z,15.31
2022-10-15T00:13:15.051Z,15.57
2022-10-15T00:15:42.922Z,15.85
2022-10-15T00:18:10.737Z,15.86
2022-10-15T00:20:42.454Z,15.84
2022-10-15T00:23:10.019Z,15.80
2022-10-15T00:25:38.038Z,15.79
2022-10-15T00:28:05.808Z,15.80
2022-10-15T00:30:34.046Z,15.43
2022-10-15T00:33:01.711Z,15.75
2022-10-15T00:35:29.263Z,15.51
2022-10-15T00:38:01.278Z,15.60
2022-10-15T00:40:28.837Z,15.30
2022-10-15T00:42:56.415Z,15.46
2022-10-15T00:45:24.285Z,15.28
2022-10-15T00:47:53.962Z,15.65
2022-10-15T00:50:24.579Z,15.72
2022-10-15T00:53:01.018Z,15.46
2022-10-15T00:55:32.486Z,15.58
2022-10-15T00:58:06.499Z,15.77
2022-10-15T01:00:35.072Z,15.45
2022-10-15T01:03:02.985Z,15.84
2022-10-15T01:05:31.573Z,15.63
2022-10-15T01:07:59.097Z,15.80
2022-10-15T01:10:33.942Z,16.08
2022-10-15T01:13:11.089Z,15.63
2022-10-15T01:15:45.365Z,15.38
2022-10-15T01:18:17.474Z,15.87
2022-10-15T01:20:56.958Z,15.35
2022-10-15T01:23:54.038Z,15.34
2022-10-15T01:26:57.637Z,15.49
2022-10-15T01:29:44.865Z,15.49
2022-10-15T01:32:20.398Z,15.59
2022-10-15T01:34:55.255Z,15.44
2022-10-15T01:37:29.315Z,15.82
2022-10-15T01:40:03.295Z,15.98
2022-10-15T01:42:35.893Z,15.80
2022-10-15T01:45:08.194Z,15.57
2022-10-15T01:47:42.458Z,15.41
2022-10-15T01:50:13.021Z,15.70
2022-10-15T01:52:42.047Z,15.74
2022-10-15T01:55:14.600Z,15.69
2022-10-15T01:57:45.577Z,15.70
2022-10-15T02:00:13.583Z,15.21
2022-10-15T02:02:43.069Z,15.59
2022-10-15T02:05:16.601Z,15.46
2022-10-15T02:07:54.290Z,15.41
2022-10-15T02:10:28.837Z,15.62
2022-10-15T02:13:05.798Z,16.03
2022-10-15T02:15:38.489Z,15.85
2022-10-15T02:18:14.322Z,15.85
2022-10-15T02:20:51.234Z,15.95
2022-10-15T02:23:22.091Z,16.04
2022-10-15T02:25:52.807Z,15.67
2022-10-15T02:28:22.390Z,15.67
2022-10-15T02:30:53.866Z,15.49
2022-10-15T02:33:25.658Z,15.96
2022-10-15T02:35:53.981Z,15.73
2022-10-15T02:38:25.945Z,15.94
2022-10-15T02:40:54.757Z,15.77
2022-10-15T02:43:22.978Z,15.82
2022-10-15T02:45:50.720Z,16.02
2022-10-15T02:48:18.427Z,16.10
2022-10-15T02:50:47.280Z,15.80
2022-10-15T02:53:14.944Z,15.90
2022-10-15T02:55:42.540Z,15.64
2022-10-15T02:58:10.114Z,15.53
2022-10-15T03:00:37.809Z,15.54
2022-10-15T03:03:05.650Z,15.96
2022-10-15T03:05:35.013Z,15.82
2022-10-15T03:08:04.046Z,15.83
2022-10-15T03:10:31.615Z,15.91
2022-10-15T03:13:03.721Z,15.55
2022-10-15T03:15:31.653Z,15.59
2022-10-15T03:17:59.205Z,15.60
2022-10-15T03:20:26.746Z,15.57
2022-10-15T03:22:54.764Z,15.45
2022-10-15T03:25:23.654Z,15.30
2022-10-15T03:27:52.797Z,15.63
2022-10-15T03:30:20.563Z,15.67
2022-10-15T03:32:48.499Z,15.71
2022-10-15T03:35:16.171Z,15.55
2022-10-15T03:37:43.706Z,15.70
2022-10-15T03:40:13.680Z,15.69
2022-10-15T03:42:43.610Z,15.70
2022-10-15T03:45:11.753Z,15.67
2022-10-15T03:47:39.346Z,15.73
2022-10-15T03:50:07.251Z,15.85
2022-10-15T03:52:34.785Z,15.27
2022-10-15T03:55:02.413Z,15.50
2022-10-15T03:57:29.982Z,15.39
2022-10-15T03:59:58.897Z,15.71
2022-10-15T04:02:27.016Z,15.53
2022-10-15T04:04:55.482Z,15.35
2022-10-15T04:07:23.438Z,15.37
2022-10-15T04:09:51.185Z,15.59
2022-10-15T04:12:19.262Z,15.60
2022-10-15T04:14:46.821Z,15.70
2022-10-15T04:17:17.981Z,15.48
2022-10-15T04:19:45.664Z,15.71
2022-10-15T04:22:13.214Z,15.63
2022-10-15T04:24:40.766Z,15.61
2022-10-15T04:27:08.664Z,15.67
2022-10-15T04:29:36.237Z,15.73
2022-10-15T04:32:03.802Z,15.80
2022-10-15T04:34:32.731Z,15.80
2022-10-15T04:37:00.297Z,15.76
2022-10-15T04:39:28.082Z,15.88
2022-10-15T04:41:55.602Z,15.91
2022-10-15T04:44:23.134Z,15.90
2022-10-15T04:46:50.667Z,15.78
2022-10-15T04:49:18.220Z,15.85
2022-10-15T04:51:47.101Z,15.88
2022-10-15T04:54:14.952Z,15.87
2022-10-15T04:56:42.565Z,15.86
2022-10-15T04:59:10.155Z,15.80
2022-10-15T05:01:37.696Z,15.83
2022-10-15T05:04:05.593Z,15.86
2022-10-15T05:06:34.824Z,15.80
2022-10-15T05:09:03.750Z,15.92
2022-10-15T05:11:31.750Z,15.94
2022-10-15T05:13:59.835Z,15.91
2022-10-15T05:16:29.662Z,16.01
2022-10-15T05:18:59.558Z,15.89
2022-10-15T05:21:27.858Z,15.89
2022-10-15T05:23:55.526Z,15.93
2022-10-15T05:26:26.297Z,15.94
2022-10-15T05:28:54.405Z,15.90
2022-10-15T05:31:23.933Z,15.92
2022-10-15T05:33:53.053Z,15.94
2022-10-15T05:36:22.663Z,15.94
2022-10-15T05:38:54.018Z,15.86
2022-10-15T05:41:22.670Z,15.84
2022-10-15T05:43:52.454Z,15.80
2022-10-15T05:46:21.249Z,15.88
2022-10-15T05:48:49.866Z,15.99
2022-10-15T05:51:17.828Z,15.99
2022-10-15T05:53:46.175Z,16.00
2022-10-15T05:56:14.563Z,16.01
2022-10-15T05:58:42.556Z,16.02
2022-10-15T06:01:13.491Z,15.95
2022-10-15T06:03:42.621Z,16.13
2022-10-15T06:06:18.112Z,16.29
2022-10-15T06:08:45.737Z,16.16
2022-10-15T06:11:13.499Z,16.24
2022-10-15T06:13:42.743Z,16.27
2022-10-15T06:16:13.298Z,16.39
2022-10-15T06:18:41.591Z,16.21
2022-10-15T06:21:09.727Z,16.25
2022-10-15T06:23:37.589Z,16.31
2022-10-15T06:26:05.989Z,16.38
2022-10-15T06:28:33.948Z,16.36
2022-10-15T06:31:01.809Z,16.25
2022-10-15T06:33:31.242Z,16.14
2022-10-15T06:36:03.238Z,16.17
2022-10-15T06:38:31.154Z,15.94
2022-10-15T06:40:58.750Z,16.06
2022-10-15T06:43:28.718Z,16.14
2022-10-15T06:46:00.491Z,16.13
2022-10-15T06:48:28.197Z,15.95
2022-10-15T06:50:59.142Z,16.08
2022-10-15T06:53:26.797Z,16.13
2022-10-15T06:55:57.836Z,16.05
2022-10-15T06:58:25.525Z,16.19
2022-10-15T07:00:53.081Z,16.21
2022-10-15T07:03:20.681Z,16.16
2022-10-15T07:05:48.222Z,16.11
2022-10-15T07:08:19.354Z,16.12
2022-10-15T07:10:47.485Z,16.01
2022-10-15T07:13:15.391Z,16.08
2022-10-15T07:15:44.588Z,16.13
2022-10-15T07:18:12.139Z,16.19
2022-10-15T07:20:39.703Z,16.16
2022-10-15T07:23:07.264Z,16.20
2022-10-15T07:25:36.198Z,16.13
2022-10-15T07:28:04.073Z,16.08
2022-10-15T07:30:31.643Z,16.10
2022-10-15T07:33:00.253Z,16.09
2022-10-15T07:35:28.632Z,15.95
2022-10-15T07:37:56.470Z,16.02
2022-10-15T07:40:24.124Z,16.08
2022-10-15T07:42:56.792Z,16.08
2022-10-15T07:45:25.585Z,16.15
2022-10-15T07:47:53.605Z,16.07
2022-10-15T07:50:22.359Z,16.02
2022-10-15T07:52:50.234Z,16.08
2022-10-15T07:55:18.201Z,16.16
2022-10-15T07:57:45.798Z,16.28
2022-10-15T08:00:15.206Z,16.26
2022-10-15T08:02:42.884Z,16.28
2022-10-15T08:05:10.708Z,16.21
2022-10-15T08:07:38.378Z,16.29
2022-10-15T08:10:06.862Z,16.34
2022-10-15T08:18:46.760Z,16.67
2022-10-15T08:21:15.409Z,16.64
2022-10-15T08:23:42.961Z,16.83
2022-10-15T08:26:10.499Z,16.91
2022-10-15T08:28:38.336Z,17.01
2022-10-15T08:31:07.278Z,17.18
2022-10-15T08:33:35.555Z,17.28
2022-10-15T08:36:05.504Z,17.28
2022-10-15T08:38:33.202Z,17.25
2022-10-15T08:41:02.661Z,17.30
2022-10-15T08:43:34.361Z,17.43
2022-10-15T08:46:05.181Z,17.47
2022-10-15T08:48:37.316Z,17.30
2022-10-15T08:51:11.424Z,17.22
2022-10-15T08:53:42.435Z,17.36
2022-10-15T08:56:16.930Z,17.15
2022-10-15T08:58:51.993Z,16.91
2022-10-15T09:01:25.493Z,16.96
2022-10-15T09:04:02.955Z,16.89
2022-10-15T09:06:35.639Z,17.01
2022-10-15T09:09:09.349Z,17.11
2022-10-15T09:11:46.942Z,17.45
2022-10-15T09:14:19.690Z,17.64
2022-10-15T09:16:50.109Z,17.90
2022-10-15T09:19:20.440Z,18.13
2022-10-15T09:21:51.017Z,18.08
2022-10-15T09:24:22.501Z,18.19
2022-10-15T09:27:04.971Z,18.15
2022-10-15T09:29:38.151Z,18.18
2022-10-15T09:32:16.533Z,18.68
2022-10-15T09:34:49.562Z,18.62
2022-10-15T09:37:26.013Z,18.68
2022-10-15T09:40:28.345Z,18.83
2022-10-15T09:42:59.017Z,19.13
2022-10-15T09:45:26.595Z,19.34
2022-10-15T09:48:00.152Z,18.69
2022-10-15T09:50:36.746Z,18.76
2022-10-15T09:53:15.582Z,18.76
2022-10-15T09:55:48.034Z,18.26
2022-10-15T09:58:19.114Z,18.14
2022-10-15T10:00:55.060Z,18.28
2022-10-15T10:03:24.436Z,18.08
2022-10-15T10:05:59.734Z,17.86
2022-10-15T10:08:32.764Z,17.76
2022-10-15T10:11:02.543Z,17.54
2022-10-15T10:13:33.387Z,17.68
2022-10-15T10:16:05.759Z,17.82
2022-10-15T10:18:34.109Z,18.17
2022-10-15T10:21:03.477Z,18.39
2022-10-15T10:23:34.974Z,18.32
2022-10-15T10:26:04.044Z,18.27
2022-10-15T10:28:37.267Z,18.45
2022-10-15T10:31:09.125Z,18.75
2022-10-15T10:33:43.985Z,19.68
2022-10-15T10:36:22.370Z,19.50
2022-10-15T10:39:02.309Z,19.16
2022-10-15T10:41:52.018Z,19.30
2022-10-15T10:44:23.100Z,19.19
2022-10-15T10:47:03.494Z,19.30
2022-10-15T10:49:35.861Z,19.66
2022-10-15T10:52:03.462Z,19.15
2022-10-15T10:54:34.099Z,19.09
2022-10-15T10:57:02.275Z,18.97
2022-10-15T10:59:33.861Z,18.79
2022-10-15T11:02:03.562Z,18.64
2022-10-15T11:04:34.522Z,18.69
2022-10-15T11:07:05.461Z,18.89
2022-10-15T11:09:52.409Z,19.71
2022-10-15T11:12:40.628Z,20.55
2022-10-15T11:15:28.736Z,20.43
2022-10-15T11:18:09.947Z,19.80
2022-10-15T11:20:58.726Z,19.85
2022-10-15T11:23:42.895Z,20.03
2022-10-15T11:26:29.727Z,20.03
2022-10-15T11:29:11.595Z,19.80
2022-10-15T11:32:01.627Z,19.73
2022-10-15T11:34:40.640Z,19.20
2022-10-15T11:37:25.253Z,19.22
2022-10-15T11:40:07.089Z,19.30
2022-10-15T11:42:46.557Z,19.94
2022-10-15T11:45:39.698Z,20.60
2022-10-15T11:48:14.870Z,20.52
2022-10-15T11:50:47.515Z,20.60
2022-10-15T11:53:39.305Z,19.84
2022-10-15T11:56:14.571Z,20.31
2022-10-15T11:58:47.142Z,20.14
2022-10-15T12:01:20.818Z,19.98
2022-10-15T12:03:54.844Z,19.72
2022-10-15T12:06:27.378Z,20.26
2022-10-15T12:08:57.787Z,20.43
2022-10-15T12:11:39.898Z,19.73
2022-10-15T12:14:23.443Z,20.19
2022-10-15T12:17:01.650Z,20.72
2022-10-15T12:19:35.285Z,21.11
2022-10-15T12:22:11.208Z,21.16
2022-10-15T12:24:56.228Z,20.39
2022-10-15T12:27:34.510Z,19.95
2022-10-15T12:30:24.561Z,19.52
2022-10-15T12:32:52.730Z,19.47
2022-10-15T12:35:35.624Z,19.19
2022-10-15T12:38:21.120Z,19.09
2022-10-15T12:40:57.534Z,19.09
2022-10-15T12:43:26.058Z,19.45
2022-10-15T12:45:58.274Z,19.32
2022-10-15T12:48:34.984Z,19.22
2022-10-15T12:51:40.102Z,19.37
2022-10-15T12:54:37.323Z,18.90
2022-10-15T12:57:43.595Z,19.12
2022-10-15T13:00:33.783Z,19.07
2022-10-15T13:03:26.314Z,18.76
2022-10-15T13:05:55.217Z,18.98
2022-10-15T13:08:25.697Z,19.04
2022-10-15T13:10:56.775Z,19.05
2022-10-15T13:13:27.490Z,19.41
2022-10-15T13:15:59.359Z,19.34
2022-10-15T13:18:31.224Z,19.55
2022-10-15T13:20:59.554Z,19.82
2022-10-15T13:23:31.051Z,19.99
2022-10-15T13:26:19.770Z,19.63
2022-10-15T13:28:48.464Z,19.65
2022-10-15T13:31:28.978Z,19.45
2022-10-15T13:34:07.617Z,19.39
2022-10-15T13:36:36.731Z,19.51
2022-10-15T13:39:06.832Z,19.40
2022-10-15T13:41:37.394Z,19.51
2022-10-15T13:44:05.679Z,19.53
2022-10-15T13:46:37.256Z,19.20
2022-10-15T13:49:13.860Z,19.15
2022-10-15T13:51:44.316Z,19.04
2022-10-15T13:54:16.902Z,18.96
2022-10-15T13:56:50.254Z,19.01
2022-10-15T13:59:20.038Z,19.16
2022-10-15T14:01:49.473Z,19.00
2022-10-15T14:04:21.047Z,19.03
2022-10-15T14:09:32.442Z,18.97
2022-10-15T14:12:03.397Z,19.04
2022-10-15T14:14:34.906Z,19.31
2022-10-15T14:17:05.518Z,19.16
2022-10-15T14:19:37.510Z,19.19
2022-10-15T14:22:05.506Z,19.34
2022-10-15T14:24:35.180Z,19.15
2022-10-15T14:27:05.789Z,19.30
2022-10-15T14:29:59.485Z,19.19
2022-10-15T14:32:29.819Z,19.12
2022-10-15T14:35:00.356Z,18.78
2022-10-15T14:37:30.787Z,19.06
2022-10-15T14:40:11.985Z,19.17
2022-10-15T14:42:41.257Z,19.35
2022-10-15T14:45:13.438Z,19.22
2022-10-15T14:47:41.981Z,19.28
2022-10-15T14:50:13.085Z,19.10
2022-10-15T14:52:45.237Z,19.24
2022-10-15T14:55:20.407Z,19.15
2022-10-15T14:57:49.846Z,18.92
2022-10-15T15:00:23.827Z,19.05
2022-10-15T15:02:51.759Z,19.11
2022-10-15T15:05:23.835Z,18.77
2022-10-15T15:07:51.698Z,18.57
2022-10-15T15:10:20.258Z,18.72
2022-10-15T15:12:51.711Z,18.68
2022-10-15T15:15:46.019Z,18.92
2022-10-15T15:18:13.998Z,18.68
2022-10-15T15:20:44.562Z,18.53
2022-10-15T15:23:16.952Z,18.62
2022-10-15T15:25:44.761Z,18.77
2022-10-15T15:28:13.873Z,18.42
2022-10-15T15:30:43.640Z,18.52
2022-10-15T15:33:12.341Z,18.54
2022-10-15T15:35:50.636Z,18.65
2022-10-15T15:38:19.242Z,18.79
2022-10-15T15:40:47.690Z,18.86
2022-10-15T15:43:17.243Z,18.85
2022-10-15T15:45:46.324Z,18.74
2022-10-15T15:48:14.183Z,18.80
2022-10-15T15:50:44.386Z,18.62
2022-10-15T15:53:13.501Z,18.82
2022-10-15T15:55:41.106Z,18.63
2022-10-15T15:58:08.626Z,18.49
2022-10-15T16:00:36.560Z,18.37
2022-10-15T16:03:04.226Z,18.42
2022-10-15T16:05:31.799Z,18.23
2022-10-15T16:08:00.846Z,18.26
2022-10-15T16:10:28.531Z,18.21
2022-10-15T16:12:56.733Z,18.39
2022-10-15T16:15:24.395Z,18.30
2022-10-15T16:17:52.289Z,18.23
2022-10-15T16:20:19.953Z,18.28
2022-10-15T16:22:50.872Z,18.27
2022-10-15T16:25:20.103Z,18.14
2022-10-15T16:27:48.750Z,18.11
2022-10-15T16:30:17.544Z,18.16
2022-10-15T16:32:45.150Z,18.10
2022-10-15T16:35:12.938Z,18.01
2022-10-15T16:37:40.790Z,18.00
2022-10-15T16:40:10.120Z,18.04
2022-10-15T16:42:39.019Z,18.04
2022-10-15T16:45:07.438Z,18.00
2022-10-15T16:47:35.105Z,18.05
2022-10-15T16:50:02.876Z,18.01
2022-10-15T16:52:30.641Z,18.03
2022-10-15T16:54:58.214Z,17.96
2022-10-15T16:57:27.162Z,18.02
2022-10-15T16:59:56.322Z,18.05
2022-10-15T17:02:24.373Z,18.09
2022-10-15T17:04:53.184Z,18.04
2022-10-15T17:07:20.989Z,18.01
2022-10-15T17:12:17.672Z,17.83
2022-10-15T17:14:50.648Z,17.98
2022-10-15T17:19:48.260Z,17.95
2022-10-15T17:22:15.886Z,18.03
2022-10-15T17:24:43.438Z,17.89
2022-10-15T17:27:10.988Z,17.96
2022-10-15T17:29:38.638Z,17.91
2022-10-15T17:32:06.252Z,17.89
2022-10-15T17:34:35.685Z,17.92
2022-10-15T17:37:03.278Z,17.93
2022-10-15T17:39:30.870Z,17.95
2022-10-15T17:41:58.774Z,17.88
2022-10-15T17:44:26.420Z,17.92
2022-10-15T17:46:54.278Z,18.00
2022-10-15T17:49:22.038Z,17.89
2022-10-15T17:51:51.476Z,17.89
2022-10-15T17:54:19.656Z,17.91
2022-10-15T17:56:48.490Z,17.90
2022-10-15T17:59:16.447Z,17.84
2022-10-15T18:02:01.044Z,17.77
2022-10-15T18:04:29.609Z,17.81
2022-10-15T18:06:58.638Z,17.78
2022-10-15T18:09:27.033Z,17.82
2022-10-15T18:11:54.707Z,17.81
2022-10-15T18:14:22.428Z,17.84
2022-10-15T18:16:50.065Z,17.79
2022-10-15T18:19:17.881Z,17.85
2022-10-15T18:21:48.714Z,17.94
2022-10-15T18:24:21.736Z,17.97
2022-10-15T18:26:50.132Z,17.95
2022-10-15T18:29:17.860Z,17.88
2022-10-15T18:31:46.604Z,17.89
2022-10-15T18:34:14.447Z,17.87
2022-10-15T18:36:43.499Z,17.90
2022-10-15T18:39:11.780Z,17.99
2022-10-15T18:41:41.076Z,17.90
2022-10-15T18:44:14.650Z,17.97
2022-10-15T18:46:43.837Z,17.95
2022-10-15T18:49:12.293Z,17.97
2022-10-15T18:51:39.893Z,17.93
2022-10-15T18:54:08.622Z,17.97
2022-10-15T18:56:36.231Z,17.95
2022-10-15T18:59:05.238Z,18.01
2022-10-15T19:01:34.921Z,18.09
2022-10-15T19:04:04.303Z,18.07
2022-10-15T19:06:34.467Z,17.98
2022-10-15T19:09:03.417Z,17.99
2022-10-15T19:11:31.346Z,18.02
2022-10-15T19:13:59.208Z,17.97
2022-10-15T19:16:28.597Z,17.99
2022-10-15T19:18:56.142Z,17.95
2022-10-15T19:21:23.724Z,18.00
2022-10-15T19:23:51.453Z,18.07
2022-10-15T19:26:19.178Z,18.00
2022-10-15T19:28:47.413Z,17.99
2022-10-15T19:31:24.015Z,17.96
2022-10-15T19:33:52.930Z,17.93
2022-10-15T19:36:21.959Z,17.79
2022-10-15T19:38:49.959Z,17.62
2022-10-15T19:41:17.506Z,17.52
2022-10-15T19:43:45.387Z,17.57
2022-10-15T19:46:13.102Z,17.58
2022-10-15T19:48:40.729Z,17.51
2022-10-15T19:51:10.166Z,17.63
2022-10-15T19:53:37.960Z,17.39
2022-10-15T19:56:08.289Z,17.27
2022-10-15T19:58:36.870Z,17.48
2022-10-15T20:01:05.445Z,17.64
2022-10-15T20:03:33.910Z,17.99
2022-10-15T20:06:02.960Z,17.88
2022-10-15T20:08:32.350Z,18.06
2022-10-15T20:11:00.119Z,17.99
2022-10-15T20:13:27.840Z,17.72
2022-10-15T20:15:55.622Z,17.86
2022-10-15T20:18:23.755Z,17.65
2022-10-15T20:20:51.507Z,17.63
2022-10-15T20:23:19.367Z,17.41
2022-10-15T20:25:48.463Z,17.36
2022-10-15T20:28:18.303Z,17.32
2022-10-15T20:30:47.151Z,17.57
2022-10-15T20:33:14.975Z,17.38
2022-10-15T20:35:43.220Z,17.72
2022-10-15T20:38:11.185Z,17.57
2022-10-15T20:40:41.221Z,17.86
2022-10-15T20:43:10.620Z,17.63
2022-10-15T20:45:42.991Z,17.84
2022-10-15T20:48:17.632Z,17.74
2022-10-15T20:50:45.666Z,17.79
2022-10-15T20:53:13.629Z,17.28
2022-10-15T20:55:41.450Z,17.56
2022-10-15T20:58:10.584Z,17.59
2022-10-15T21:00:38.143Z,17.62
2022-10-15T21:03:05.713Z,17.37
2022-10-15T21:05:33.295Z,17.12
2022-10-15T21:08:01.586Z,17.16
2022-10-15T21:10:29.180Z,17.16
2022-10-15T21:12:56.715Z,17.38
2022-10-15T21:15:25.638Z,17.45
2022-10-15T21:17:53.206Z,17.51
2022-10-15T21:20:20.791Z,17.61
2022-10-15T21:22:48.310Z,17.63
2022-10-15T21:25:15.926Z,17.44
2022-10-15T21:27:43.505Z,17.62
2022-10-15T21:30:11.845Z,17.57
2022-10-15T21:32:40.771Z,17.31
2022-10-15T21:35:08.958Z,17.36
2022-10-15T21:37:37.835Z,17.42
2022-10-15T21:40:07.490Z,17.33
2022-10-15T21:42:35.224Z,16.95
2022-10-15T21:45:02.798Z,16.88
2022-10-15T21:47:30.625Z,16.87
2022-10-15T21:49:59.763Z,16.99
2022-10-15T21:52:27.514Z,17.11
2022-10-15T21:54:55.281Z,17.15
2022-10-15T21:57:22.946Z,17.24
2022-10-15T21:59:50.647Z,17.39
2022-10-15T22:04:46.905Z,16.76
2022-10-15T22:07:15.859Z,17.15
2022-10-15T22:09:43.639Z,16.82
2022-10-15T22:12:11.386Z,16.91
2022-10-15T22:14:38.902Z,17.22
2022-10-15T22:17:06.467Z,17.17
2022-10-15T22:19:34.030Z,17.16
2022-10-15T22:22:01.570Z,17.26
2022-10-15T22:24:30.462Z,17.32
2022-10-15T22:26:57.989Z,17.08
2022-10-15T22:29:31.789Z,16.85
2022-10-15T22:32:02.115Z,17.13
2022-10-15T22:34:29.734Z,17.05
2022-10-15T22:36:57.288Z,17.23
2022-10-15T22:39:24.986Z,17.22
2022-10-15T22:41:53.882Z,17.25
2022-10-15T22:44:22.751Z,16.79
2022-10-15T22:46:50.682Z,17.27
2022-10-15T22:49:20.504Z,17.02
2022-10-15T22:51:48.342Z,16.89
2022-10-15T22:54:16.863Z,17.07
2022-10-15T22:56:45.277Z,17.27
2022-10-15T22:59:15.030Z,17.27
2022-10-15T23:01:42.993Z,17.35
2022-10-15T23:04:13.778Z,17.36
2022-10-15T23:06:41.775Z,17.35
2022-10-15T23:09:10.155Z,17.17
2022-10-15T23:11:39.806Z,17.28
2022-10-15T23:14:11.189Z,16.83
2022-10-15T23:16:42.137Z,16.69
2022-10-15T23:19:13.893Z,16.79
2022-10-15T23:21:43.634Z,16.76
2022-10-15T23:24:11.560Z,16.76
2022-10-15T23:26:40.832Z,16.89
2022-10-15T23:29:12.861Z,16.88
2022-10-15T23:31:42.091Z,16.90
2022-10-15T23:34:14.686Z,16.95
2022-10-15T23:36:42.755Z,16.99
2022-10-15T23:39:15.262Z,16.80
2022-10-15T23:41:43.393Z,16.82
2022-10-15T23:44:12.093Z,16.67
2022-10-15T23:46:41.472Z,16.78
2022-10-15T23:49:09.874Z,16.76
2022-10-15T23:51:38.017Z,16.69
2022-10-15T23:54:12.908Z,16.62
2022-10-15T23:56:40.405Z,16.56
2022-10-15T23:59:08.093Z,16.58
